Terminal Aerodrome Forecast
Issued by NWS

Home | Current Version | Previous Version | Text Only | Print | Product List | Glossary Off
Versions: 1 2 3 4 5 6 7 8 9 10 11 12 13 14 15 16 17 18 19 20 21 22 23 24 25 26 27 28 29 30 31 32 33 34 35 36

000
FTUS43 KLOT 152200 AAB
TAFORD
TAF AMD
KORD 152208Z 1522/1624 13012KT 5SM -RA BR OVC012
     FM160030 13010KT 3SM -DZ BR OVC007
     FM160400 14007KT 2SM -DZ BR OVC003
     FM160900 21004KT 2SM -DZ BR OVC003
     FM161500 29011KT 3SM -RA BR OVC007
     FM161900 31013G21KT 6SM BR OVC012=

USA.gov is the U.S. government's official web portal to all federal, state and local government web resources and services.